createdAt,value
2017-06-21T00:00:26.069Z,14.49
2017-06-21T00:00:54.263Z,14.56
2017-06-21T00:01:22.360Z,14.57
2017-06-21T00:01:50.461Z,14.59
2017-06-21T00:02:18.468Z,14.57
2017-06-21T00:02:46.627Z,14.57
2017-06-21T00:03:14.607Z,14.52
2017-06-21T00:03:42.851Z,14.53
2017-06-21T00:04:10.981Z,14.49
2017-06-21T00:04:39.045Z,14.53
2017-06-21T00:05:07.265Z,14.57
2017-06-21T00:05:35.257Z,14.53
2017-06-21T00:06:03.460Z,14.59
2017-06-21T00:06:31.591Z,14.59
2017-06-21T00:06:59.724Z,14.52
2017-06-21T00:07:28.095Z,14.57
2017-06-21T00:07:56.114Z,14.57
2017-06-21T00:08:24.230Z,14.6
2017-06-21T00:08:52.267Z,14.61
2017-06-21T00:09:20.471Z,14.64
2017-06-21T00:09:48.676Z,14.6
2017-06-21T00:10:16.689Z,14.63
2017-06-21T00:10:44.842Z,14.59
2017-06-21T00:11:13.050Z,14.6
2017-06-21T00:11:41.077Z,14.59
2017-06-21T00:12:09.198Z,14.59
2017-06-21T00:12:37.495Z,14.66
2017-06-21T00:13:05.457Z,14.61
2017-06-21T00:13:33.665Z,14.6
2017-06-21T00:14:01.922Z,14.61
2017-06-21T00:14:30.174Z,14.6
2017-06-21T00:14:58.409Z,14.59
2017-06-21T00:15:26.568Z,14.63
2017-06-21T00:15:54.631Z,14.57
2017-06-21T00:16:22.839Z,14.67
2017-06-21T00:16:50.826Z,14.59
2017-06-21T00:17:18.951Z,14.61
2017-06-21T00:17:47.189Z,14.63
2017-06-21T00:18:15.429Z,14.63
2017-06-21T00:18:43.448Z,14.64
2017-06-21T00:19:11.648Z,14.6
2017-06-21T00:19:39.857Z,14.63
2017-06-21T00:20:08.013Z,14.59
2017-06-21T00:20:36.251Z,14.66
2017-06-21T00:21:04.477Z,14.69
2017-06-21T00:21:32.684Z,14.63
2017-06-21T00:22:00.736Z,14.64
2017-06-21T00:22:28.917Z,14.57
2017-06-21T00:22:57.128Z,14.51
2017-06-21T00:23:25.358Z,14.52
2017-06-21T00:23:53.577Z,14.48
2017-06-21T00:24:21.579Z,14.48
2017-06-21T00:24:49.756Z,14.42
2017-06-21T00:25:17.910Z,14.33
2017-06-21T00:25:46.148Z,14.34
2017-06-21T00:26:14.307Z,14.3
2017-06-21T00:26:42.438Z,14.24
2017-06-21T00:27:10.454Z,14.26
2017-06-21T00:27:38.616Z,14.26
2017-06-21T00:28:06.519Z,14.2
2017-06-21T00:28:34.626Z,14.16
2017-06-21T00:29:02.834Z,14.19
2017-06-21T00:29:30.934Z,14.15
2017-06-21T00:29:59.146Z,14.2
2017-06-21T00:30:27.346Z,14.16
2017-06-21T00:30:55.579Z,14.08
2017-06-21T00:31:23.788Z,14.15
2017-06-21T00:31:51.982Z,14.2
2017-06-21T00:32:20.091Z,14.23
2017-06-21T00:32:48.332Z,14.06
2017-06-21T00:33:16.471Z,14.08
2017-06-21T00:33:44.696Z,14.11
2017-06-21T00:34:12.898Z,14.12
2017-06-21T00:34:41.104Z,14.11
2017-06-21T00:35:09.325Z,14.08
2017-06-21T00:35:37.318Z,14.08
2017-06-21T00:36:05.462Z,14.09
2017-06-21T00:36:33.666Z,14.06
2017-06-21T00:37:01.846Z,14.11
2017-06-21T00:37:29.778Z,14.09
2017-06-21T00:37:58.024Z,14.05
2017-06-21T00:38:26.134Z,14.08
2017-06-21T00:38:54.331Z,14.11
2017-06-21T00:39:22.474Z,14.06
2017-06-21T00:39:50.693Z,14.09
2017-06-21T00:40:18.755Z,14.05
2017-06-21T00:40:46.835Z,14.09
2017-06-21T00:41:15.084Z,14.11
2017-06-21T00:41:43.322Z,14.08
2017-06-21T00:42:11.538Z,14.09
2017-06-21T00:42:39.673Z,14.11
2017-06-21T00:43:07.941Z,14.11
2017-06-21T00:43:36.035Z,14.09
2017-06-21T00:44:04.035Z,14.12
2017-06-21T00:44:32.089Z,14.11
2017-06-21T00:45:00.313Z,14.09
2017-06-21T00:45:28.545Z,14.12
2017-06-21T00:45:56.773Z,14.08
2017-06-21T00:46:25.027Z,14.09
2017-06-21T00:46:53.246Z,14.16
2017-06-21T00:47:21.345Z,14.08
2017-06-21T00:47:49.349Z,14.13
2017-06-21T00:48:17.549Z,14.08
2017-06-21T00:48:45.553Z,14.08
2017-06-21T00:49:13.681Z,14.12
2017-06-21T00:49:41.883Z,14.06
2017-06-21T00:50:10.105Z,14.11
2017-06-21T00:50:38.354Z,14.13
2017-06-21T00:51:06.511Z,14.12
2017-06-21T00:51:34.550Z,14.09
2017-06-21T00:52:02.761Z,14.11
2017-06-21T00:52:30.788Z,14.12
2017-06-21T00:52:59.136Z,14.06
2017-06-21T00:53:27.194Z,14.08
2017-06-21T00:53:55.448Z,14.08
2017-06-21T00:54:23.649Z,14.09
2017-06-21T00:54:51.742Z,14.06
2017-06-21T00:55:19.958Z,14.11
2017-06-21T00:55:48.150Z,14.09
2017-06-21T00:56:16.252Z,14.09
2017-06-21T00:56:44.415Z,14.15
2017-06-21T00:57:12.626Z,14.19
2017-06-21T00:57:40.768Z,14.08
2017-06-21T00:58:08.958Z,14.16
2017-06-21T00:58:37.162Z,14.19
2017-06-21T00:59:05.287Z,14.16
2017-06-21T00:59:33.417Z,14.16
2017-06-21T01:00:01.525Z,14.15
2017-06-21T01:00:29.644Z,14.21
2017-06-21T01:00:57.717Z,14.13
2017-06-21T01:01:25.811Z,14.19
2017-06-21T01:01:53.856Z,14.16
2017-06-21T01:02:22.117Z,14.2
2017-06-21T01:02:50.137Z,14.15
2017-06-21T01:03:18.446Z,14.2
2017-06-21T01:03:46.490Z,14.19
2017-06-21T01:04:14.585Z,14.15
2017-06-21T01:04:42.685Z,14.12
2017-06-21T01:05:10.796Z,14.16
2017-06-21T01:05:38.888Z,14.16
2017-06-21T01:06:07.073Z,14.21
2017-06-21T01:06:35.094Z,14.2
2017-06-21T01:07:03.216Z,14.16
2017-06-21T01:07:31.356Z,14.24
2017-06-21T01:07:59.544Z,14.21
2017-06-21T01:08:27.829Z,14.26
2017-06-21T01:08:55.918Z,14.2
2017-06-21T01:09:24.098Z,14.19
2017-06-21T01:09:52.332Z,14.26
2017-06-21T01:10:20.333Z,14.2
2017-06-21T01:10:48.482Z,14.23
2017-06-21T01:11:16.723Z,14.23
2017-06-21T01:11:44.983Z,14.24
2017-06-21T01:12:13.032Z,14.26
2017-06-21T01:12:41.241Z,14.24
2017-06-21T01:13:09.533Z,14.24
2017-06-21T01:13:37.654Z,14.28
2017-06-21T01:14:05.909Z,14.31
2017-06-21T01:14:33.954Z,14.2
2017-06-21T01:15:02.075Z,14.31
2017-06-21T01:15:30.177Z,14.33
2017-06-21T01:15:58.384Z,14.27
2017-06-21T01:16:26.616Z,14.28
2017-06-21T01:16:54.779Z,14.33
2017-06-21T01:17:22.997Z,14.28
2017-06-21T01:17:51.215Z,14.3
2017-06-21T01:18:19.582Z,14.36
2017-06-21T01:18:47.803Z,14.33
2017-06-21T01:19:16.037Z,14.36
2017-06-21T01:19:44.134Z,14.34
2017-06-21T01:20:12.074Z,14.36
2017-06-21T01:20:40.214Z,14.33
2017-06-21T01:21:08.411Z,14.39
2017-06-21T01:21:36.459Z,14.36
2017-06-21T01:22:04.668Z,14.36
2017-06-21T01:22:32.909Z,14.38
2017-06-21T01:23:01.043Z,14.41
2017-06-21T01:23:29.322Z,14.31
2017-06-21T01:23:57.528Z,14.41
2017-06-21T01:24:25.733Z,14.34
2017-06-21T01:24:53.875Z,14.42
2017-06-21T01:25:22.097Z,14.41
2017-06-21T01:25:50.312Z,14.39
2017-06-21T01:26:18.522Z,14.33
2017-06-21T01:26:46.604Z,14.46
2017-06-21T01:27:14.599Z,14.49
2017-06-21T01:27:42.798Z,14.48
2017-06-21T01:28:10.827Z,14.46
2017-06-21T01:28:39.198Z,14.44
2017-06-21T01:29:07.437Z,14.48
2017-06-21T01:29:35.612Z,14.45
2017-06-21T01:30:03.840Z,14.49
2017-06-21T01:30:32.010Z,14.48
2017-06-21T01:31:00.240Z,14.46
2017-06-21T01:31:28.256Z,14.45
2017-06-21T01:31:56.494Z,14.45
2017-06-21T01:32:24.631Z,14.44
2017-06-21T01:32:52.548Z,14.46
2017-06-21T01:33:20.576Z,14.44
2017-06-21T01:33:48.855Z,14.52
2017-06-21T01:34:17.074Z,14.48
2017-06-21T01:34:45.297Z,14.52
2017-06-21T01:35:13.605Z,14.49
2017-06-21T01:35:41.716Z,14.48
2017-06-21T01:36:09.880Z,14.49
2017-06-21T01:36:37.968Z,14.49
2017-06-21T01:37:06.040Z,14.53
2017-06-21T01:37:34.074Z,14.49
2017-06-21T01:38:02.264Z,14.51
2017-06-21T01:38:30.605Z,14.52
2017-06-21T01:38:58.850Z,14.46
2017-06-21T01:39:26.945Z,14.45
2017-06-21T01:39:55.228Z,14.48
2017-06-21T01:40:23.622Z,14.46
2017-06-21T01:40:51.655Z,14.51
2017-06-21T01:41:19.697Z,14.46
2017-06-21T01:41:47.809Z,14.45
2017-06-21T01:42:15.931Z,14.46
2017-06-21T01:42:44.044Z,14.45
2017-06-21T01:43:12.271Z,14.51
2017-06-21T01:43:40.533Z,14.49
2017-06-21T01:44:08.749Z,14.46
2017-06-21T01:44:36.989Z,14.46
2017-06-21T01:45:05.142Z,14.51
2017-06-21T01:45:33.237Z,14.44
2017-06-21T01:46:01.470Z,14.46
2017-06-21T01:46:29.644Z,14.46
2017-06-21T01:46:57.821Z,14.46
2017-06-21T01:47:26.066Z,14.49
2017-06-21T01:47:54.123Z,14.46
2017-06-21T01:48:22.081Z,14.49
2017-06-21T01:48:50.266Z,14.49
2017-06-21T01:49:18.463Z,14.46
2017-06-21T01:49:46.653Z,14.48
2017-06-21T01:50:14.762Z,14.48
2017-06-21T01:50:43.002Z,14.49
2017-06-21T01:51:11.234Z,14.48
2017-06-21T01:51:39.351Z,14.44
2017-06-21T01:52:07.479Z,14.42
2017-06-21T01:52:35.731Z,14.41
2017-06-21T01:53:03.821Z,14.44
2017-06-21T01:53:32.033Z,14.31
2017-06-21T01:54:00.170Z,14.46
2017-06-21T01:54:28.294Z,14.46
2017-06-21T01:54:56.553Z,14.44
2017-06-21T01:55:24.769Z,14.3
2017-06-21T01:55:52.885Z,14.36
2017-06-21T01:56:21.000Z,14.39
2017-06-21T01:56:49.099Z,14.33
2017-06-21T01:57:17.296Z,14.39
2017-06-21T01:57:45.307Z,14.38
2017-06-21T01:58:13.422Z,14.33
2017-06-21T01:58:41.667Z,14.3
2017-06-21T01:59:09.743Z,14.34
2017-06-21T01:59:37.906Z,14.39
2017-06-21T02:00:05.938Z,14.36
2017-06-21T02:00:34.213Z,14.34
2017-06-21T02:01:02.402Z,14.36
2017-06-21T02:01:30.524Z,14.39
2017-06-21T02:01:58.651Z,14.33
2017-06-21T02:02:26.746Z,14.38
2017-06-21T02:02:54.996Z,14.33
2017-06-21T02:03:23.129Z,14.39
2017-06-21T02:03:51.599Z,14.33
2017-06-21T02:04:19.692Z,14.34
2017-06-21T02:04:47.679Z,14.33
2017-06-21T02:05:15.824Z,14.38
2017-06-21T02:05:44.030Z,14.33
2017-06-21T02:06:12.243Z,14.41
2017-06-21T02:06:40.214Z,14.42
2017-06-21T02:07:08.284Z,14.39
2017-06-21T02:07:36.462Z,14.36
2017-06-21T02:08:04.576Z,14.42
2017-06-21T02:08:32.670Z,14.39
2017-06-21T02:09:00.917Z,14.41
2017-06-21T02:09:29.070Z,14.36
2017-06-21T02:09:57.051Z,14.39
2017-06-21T02:10:25.053Z,14.39
2017-06-21T02:10:53.171Z,14.42
2017-06-21T02:11:21.328Z,14.38
2017-06-21T02:11:49.369Z,14.36
2017-06-21T02:12:18.615Z,14.31
2017-06-21T02:12:46.725Z,14.34
2017-06-21T02:13:14.849Z,14.41
2017-06-21T02:13:43.043Z,14.31
2017-06-21T02:14:11.240Z,14.36
2017-06-21T02:14:39.240Z,14.3
2017-06-21T02:15:07.244Z,14.36
2017-06-21T02:15:35.454Z,14.28
2017-06-21T02:16:03.733Z,14.36
2017-06-21T02:16:31.912Z,14.34
2017-06-21T02:17:00.085Z,14.31
2017-06-21T02:17:28.265Z,14.31
2017-06-21T02:17:56.551Z,14.28
2017-06-21T02:18:24.835Z,14.3
2017-06-21T02:18:52.998Z,14.31
2017-06-21T02:19:21.225Z,14.36
2017-06-21T02:19:49.442Z,14.36
2017-06-21T02:20:17.595Z,14.38
2017-06-21T02:20:45.585Z,14.33
2017-06-21T02:21:13.722Z,14.33
2017-06-21T02:21:41.811Z,14.34
2017-06-21T02:22:09.994Z,14.38
2017-06-21T02:22:38.188Z,14.31
2017-06-21T02:23:06.317Z,14.34
2017-06-21T02:23:34.429Z,14.34
2017-06-21T02:24:02.748Z,14.36
2017-06-21T02:24:30.865Z,14.38
2017-06-21T02:24:59.109Z,14.34
2017-06-21T02:25:27.232Z,14.36
2017-06-21T02:25:55.401Z,14.31
2017-06-21T02:26:23.410Z,14.34
2017-06-21T02:26:51.714Z,14.36
2017-06-21T02:27:19.876Z,14.42
2017-06-21T02:27:47.925Z,14.38
2017-06-21T02:28:15.924Z,14.39
2017-06-21T02:28:44.049Z,14.36
2017-06-21T02:29:12.300Z,14.39
2017-06-21T02:29:40.392Z,14.34
2017-06-21T02:30:08.566Z,14.36
2017-06-21T02:30:36.652Z,14.41
2017-06-21T02:31:04.448Z,14.33
2017-06-21T02:31:32.388Z,14.31
2017-06-21T02:32:00.578Z,14.41
2017-06-21T02:32:28.702Z,14.38
2017-06-21T02:32:56.872Z,14.38
2017-06-21T02:33:25.062Z,14.44
2017-06-21T02:33:53.204Z,14.44
2017-06-21T02:34:21.491Z,14.34
2017-06-21T02:34:49.717Z,14.42
2017-06-21T02:35:17.836Z,14.49
2017-06-21T02:35:46.053Z,14.48
2017-06-21T02:36:14.301Z,14.44
2017-06-21T02:36:42.404Z,14.45
2017-06-21T02:37:10.511Z,14.49
2017-06-21T02:37:38.565Z,14.48
2017-06-21T02:38:06.794Z,14.46
2017-06-21T02:38:34.954Z,14.46
2017-06-21T02:39:02.952Z,14.49
2017-06-21T02:39:31.294Z,14.49
2017-06-21T02:39:59.458Z,14.51
2017-06-21T02:40:27.481Z,14.49
2017-06-21T02:40:55.600Z,14.46
2017-06-21T02:41:23.745Z,14.48
2017-06-21T02:41:51.971Z,14.48
2017-06-21T02:42:19.946Z,14.49
2017-06-21T02:42:48.073Z,14.51
2017-06-21T02:43:16.211Z,14.45
2017-06-21T02:43:44.350Z,14.44
2017-06-21T02:44:12.361Z,14.44
2017-06-21T02:44:40.666Z,14.45
2017-06-21T02:45:08.703Z,14.44
2017-06-21T02:45:36.806Z,14.46
2017-06-21T02:46:04.796Z,14.44
2017-06-21T02:46:32.834Z,14.49
2017-06-21T02:47:00.904Z,14.48
2017-06-21T02:47:29.022Z,14.38
2017-06-21T02:47:57.133Z,14.48
2017-06-21T02:48:25.318Z,14.48
2017-06-21T02:48:53.441Z,14.48
2017-06-21T02:49:21.673Z,14.45
2017-06-21T02:49:49.742Z,14.46
2017-06-21T02:50:17.971Z,14.48
2017-06-21T02:50:46.024Z,14.48
2017-06-21T02:51:14.081Z,14.46
2017-06-21T02:51:42.143Z,14.45
2017-06-21T02:52:10.344Z,14.46
2017-06-21T02:52:38.526Z,14.48
2017-06-21T02:53:06.760Z,14.44
2017-06-21T02:53:34.848Z,14.45
2017-06-21T02:54:03.017Z,14.44
2017-06-21T02:54:31.321Z,14.48
2017-06-21T02:54:59.508Z,14.46
2017-06-21T02:55:27.366Z,14.45
2017-06-21T02:55:55.352Z,14.48
2017-06-21T02:56:23.539Z,14.41
2017-06-21T02:56:51.607Z,14.49
2017-06-21T02:57:19.759Z,14.44
2017-06-21T02:57:47.863Z,14.48
2017-06-21T02:58:16.010Z,14.44
2017-06-21T02:58:44.046Z,14.48
2017-06-21T02:59:12.191Z,14.45
2017-06-21T02:59:40.536Z,14.46
2017-06-21T03:00:08.753Z,14.51
2017-06-21T03:00:36.948Z,14.41
2017-06-21T03:01:05.171Z,14.45
2017-06-21T03:01:33.381Z,14.45
2017-06-21T03:02:01.557Z,14.46
2017-06-21T03:02:29.760Z,14.48
2017-06-21T03:02:57.788Z,14.49
2017-06-21T03:03:26.073Z,14.38
2017-06-21T03:03:54.080Z,14.48
2017-06-21T03:04:22.098Z,14.46
2017-06-21T03:04:50.315Z,14.46
2017-06-21T03:05:18.424Z,14.38
2017-06-21T03:05:46.609Z,14.49
2017-06-21T03:06:14.821Z,14.48
2017-06-21T03:06:43.077Z,14.44
2017-06-21T03:07:11.174Z,14.45
2017-06-21T03:07:39.366Z,14.49
2017-06-21T03:08:07.520Z,14.48
2017-06-21T03:08:35.779Z,14.51
2017-06-21T03:09:03.990Z,14.45
2017-06-21T03:09:32.122Z,14.45
2017-06-21T03:10:00.246Z,14.46
2017-06-21T03:10:28.497Z,14.46
2017-06-21T03:10:56.544Z,14.53
2017-06-21T03:11:24.770Z,14.49
2017-06-21T03:11:52.912Z,14.48
2017-06-21T03:12:21.129Z,14.49
2017-06-21T03:12:49.118Z,14.46
2017-06-21T03:13:17.312Z,14.45
2017-06-21T03:13:45.427Z,14.51
2017-06-21T03:14:13.524Z,14.45
2017-06-21T03:14:41.775Z,14.46
2017-06-21T03:15:09.981Z,14.45
2017-06-21T03:15:38.015Z,14.51
2017-06-21T03:16:06.224Z,14.44
2017-06-21T03:16:34.357Z,14.45
2017-06-21T03:17:02.567Z,14.44
2017-06-21T03:17:30.683Z,14.46
2017-06-21T03:17:58.938Z,14.48
2017-06-21T03:18:26.913Z,14.49
2017-06-21T03:18:54.809Z,14.46
2017-06-21T03:19:22.945Z,14.49
2017-06-21T03:19:51.306Z,14.48
2017-06-21T03:20:19.408Z,14.44
2017-06-21T03:20:47.459Z,14.52
2017-06-21T03:21:15.394Z,14.45
2017-06-21T03:21:43.510Z,14.49
2017-06-21T03:22:11.543Z,14.57
2017-06-21T03:22:39.656Z,14.52
2017-06-21T03:23:07.731Z,14.56
2017-06-21T03:23:35.953Z,14.57
2017-06-21T03:24:03.954Z,14.48
2017-06-21T03:24:32.154Z,14.51
2017-06-21T03:25:00.438Z,14.57
2017-06-21T03:25:28.633Z,14.49
2017-06-21T03:25:56.764Z,14.57
2017-06-21T03:26:24.990Z,14.57
2017-06-21T03:26:53.082Z,14.56
2017-06-21T03:27:21.108Z,14.56
2017-06-21T03:27:49.230Z,14.51
2017-06-21T03:28:17.352Z,14.56
2017-06-21T03:28:45.505Z,14.52
2017-06-21T03:29:13.697Z,14.53
2017-06-21T03:29:41.812Z,14.57
2017-06-21T03:30:10.284Z,14.6
2017-06-21T03:30:38.349Z,14.57
2017-06-21T03:31:06.542Z,14.61
2017-06-21T03:31:34.644Z,14.56
2017-06-21T03:32:02.841Z,14.6
2017-06-21T03:32:31.016Z,14.59
2017-06-21T03:32:59.250Z,14.61
2017-06-21T03:33:27.480Z,14.59
2017-06-21T03:33:55.679Z,14.57
2017-06-21T03:34:23.697Z,14.57
2017-06-21T03:34:51.895Z,14.56
2017-06-21T03:35:20.072Z,14.53
2017-06-21T03:35:48.325Z,14.53
2017-06-21T03:36:16.571Z,14.53
2017-06-21T03:36:44.827Z,14.59
2017-06-21T03:37:13.016Z,14.53
2017-06-21T03:37:41.135Z,14.61
2017-06-21T03:38:09.261Z,14.59
2017-06-21T03:38:37.510Z,14.51
2017-06-21T03:39:05.729Z,14.57
2017-06-21T03:39:33.962Z,14.49
2017-06-21T03:40:02.071Z,14.57
2017-06-21T03:40:30.293Z,14.51
2017-06-21T03:40:58.363Z,14.57
2017-06-21T03:41:26.594Z,14.57
2017-06-21T03:41:54.820Z,14.57
2017-06-21T03:42:22.987Z,14.56
2017-06-21T03:42:51.094Z,14.52
2017-06-21T03:43:19.220Z,14.59
2017-06-21T03:43:47.342Z,14.51
2017-06-21T03:44:15.457Z,14.52
2017-06-21T03:44:43.393Z,14.48
2017-06-21T03:45:11.685Z,14.48
2017-06-21T03:45:39.811Z,14.57
2017-06-21T03:46:07.949Z,14.53
2017-06-21T03:46:36.055Z,14.57
2017-06-21T03:47:04.212Z,14.52
2017-06-21T03:47:32.354Z,14.53
2017-06-21T03:48:00.453Z,14.51
2017-06-21T03:48:28.469Z,14.51
2017-06-21T03:48:56.634Z,14.52
2017-06-21T03:49:24.655Z,14.45
2017-06-21T03:49:52.926Z,14.56
2017-06-21T03:50:21.767Z,14.45
2017-06-21T03:50:50.011Z,14.49
2017-06-21T03:51:18.238Z,14.52
2017-06-21T03:51:46.439Z,14.49
2017-06-21T03:52:14.266Z,14.53
2017-06-21T03:52:42.462Z,14.53
2017-06-21T03:53:10.643Z,14.49
2017-06-21T03:53:38.672Z,14.52
2017-06-21T03:54:07.475Z,14.51
2017-06-21T03:54:35.667Z,14.44
2017-06-21T03:55:03.791Z,14.49
2017-06-21T03:55:31.935Z,14.49
2017-06-21T03:56:00.191Z,14.48
2017-06-21T03:56:28.316Z,14.56
2017-06-21T03:56:56.441Z,14.56
2017-06-21T03:57:24.450Z,14.51
2017-06-21T03:57:52.672Z,14.56
2017-06-21T03:58:20.775Z,14.52
2017-06-21T03:58:49.030Z,14.56
2017-06-21T03:59:17.190Z,14.57
2017-06-21T03:59:46.191Z,14.52
2017-06-21T04:00:14.366Z,14.52
2017-06-21T04:00:42.400Z,14.51
2017-06-21T04:01:10.596Z,14.59
2017-06-21T04:01:38.832Z,14.51
2017-06-21T04:02:06.841Z,14.61
2017-06-21T04:02:34.880Z,14.57
2017-06-21T04:03:02.871Z,14.53
2017-06-21T04:03:31.183Z,14.6
2017-06-21T04:04:00.540Z,14.56
2017-06-21T04:04:29.470Z,14.59
2017-06-21T04:04:58.430Z,14.51
2017-06-21T04:05:26.745Z,14.6
2017-06-21T04:05:54.986Z,14.59
2017-06-21T04:06:23.116Z,14.52
2017-06-21T04:06:51.301Z,14.57
2017-06-21T04:07:19.553Z,14.53
2017-06-21T04:07:47.717Z,14.57
2017-06-21T04:08:15.860Z,14.57
2017-06-21T04:08:44.054Z,14.57
2017-06-21T04:09:12.189Z,14.63
2017-06-21T04:09:40.486Z,14.61
2017-06-21T04:10:09.479Z,14.56
2017-06-21T04:10:37.942Z,14.67
2017-06-21T04:11:06.049Z,14.53
2017-06-21T04:11:34.283Z,14.57
2017-06-21T04:12:02.411Z,14.53
2017-06-21T04:12:30.619Z,14.66
2017-06-21T04:12:58.836Z,14.56
2017-06-21T04:13:27.082Z,14.57
2017-06-21T04:13:55.245Z,14.59
2017-06-21T04:14:23.430Z,14.66
2017-06-21T04:14:51.470Z,14.6
2017-06-21T04:15:21.145Z,14.59
2017-06-21T04:15:52.789Z,14.59
2017-06-21T04:16:21.097Z,14.56
2017-06-21T04:16:50.650Z,14.6
2017-06-21T04:17:18.852Z,14.59
2017-06-21T04:17:46.992Z,14.56
2017-06-21T04:18:15.192Z,14.56
2017-06-21T04:18:43.190Z,14.56
2017-06-21T04:19:11.422Z,14.53
2017-06-21T04:19:39.528Z,14.53
2017-06-21T04:20:07.756Z,14.51
2017-06-21T04:20:36.031Z,14.53
2017-06-21T04:21:04.267Z,14.51
2017-06-21T04:21:32.480Z,14.57
2017-06-21T04:22:00.597Z,14.6
2017-06-21T04:22:28.827Z,14.66
2017-06-21T04:22:56.946Z,14.66
2017-06-21T04:23:25.078Z,14.61
2017-06-21T04:23:53.125Z,14.57
2017-06-21T04:24:21.323Z,14.56
2017-06-21T04:24:49.458Z,14.69
2017-06-21T04:25:17.483Z,14.69
2017-06-21T04:25:45.854Z,14.6
2017-06-21T04:26:13.975Z,14.6
2017-06-21T04:26:42.088Z,14.61
2017-06-21T04:27:10.132Z,14.6
2017-06-21T04:27:38.434Z,14.56
2017-06-21T04:28:06.551Z,14.56
2017-06-21T04:28:34.672Z,14.64
2017-06-21T04:29:02.683Z,14.6
2017-06-21T04:29:32.084Z,14.6
2017-06-21T04:30:00.111Z,14.6
2017-06-21T04:30:28.317Z,14.69
2017-06-21T04:30:56.626Z,14.63
2017-06-21T04:31:24.690Z,14.61
2017-06-21T04:31:52.810Z,14.7
2017-06-21T04:32:20.990Z,14.56
2017-06-21T04:32:49.216Z,14.6
2017-06-21T04:33:17.265Z,14.61
2017-06-21T04:33:45.263Z,14.66
2017-06-21T04:34:13.284Z,14.61
2017-06-21T04:34:41.504Z,14.6
2017-06-21T04:35:09.627Z,14.61
2017-06-21T04:35:37.656Z,14.61
2017-06-21T04:36:05.959Z,14.61
2017-06-21T04:36:34.106Z,14.53
2017-06-21T04:37:02.225Z,14.53
2017-06-21T04:37:30.434Z,14.59
2017-06-21T04:37:58.610Z,14.6
2017-06-21T04:38:26.700Z,14.56
2017-06-21T04:38:54.911Z,14.63
2017-06-21T04:39:22.943Z,14.63
2017-06-21T04:39:51.071Z,14.53
2017-06-21T04:40:19.285Z,14.63
2017-06-21T04:40:48.088Z,14.59
2017-06-21T04:41:16.384Z,14.57
2017-06-21T04:41:44.607Z,14.6
2017-06-21T04:42:12.750Z,14.57
2017-06-21T04:42:40.931Z,14.56
2017-06-21T04:43:09.062Z,14.57
2017-06-21T04:43:37.160Z,14.67
2017-06-21T04:44:05.324Z,14.61
2017-06-21T04:44:33.556Z,14.63
2017-06-21T04:45:01.808Z,14.66
2017-06-21T04:45:29.983Z,14.6
2017-06-21T04:45:58.345Z,14.63
2017-06-21T04:46:26.457Z,14.63
2017-06-21T04:46:54.661Z,14.53
2017-06-21T04:47:22.756Z,14.61
2017-06-21T04:47:50.892Z,14.6
2017-06-21T04:48:19.083Z,14.61
2017-06-21T04:48:47.220Z,14.63
2017-06-21T04:49:15.409Z,14.59
2017-06-21T04:49:43.648Z,14.61
2017-06-21T04:50:11.852Z,14.59
2017-06-21T04:50:39.964Z,14.59
2017-06-21T04:51:08.378Z,14.66
2017-06-21T04:51:36.611Z,14.6
2017-06-21T04:52:04.813Z,14.61
2017-06-21T04:52:33.059Z,14.61
2017-06-21T04:53:01.296Z,14.67
2017-06-21T04:53:29.515Z,14.69
2017-06-21T04:53:57.707Z,14.64
2017-06-21T04:54:25.752Z,14.66
2017-06-21T04:54:53.954Z,14.66
2017-06-21T04:55:22.155Z,14.64
2017-06-21T04:55:50.216Z,14.66
2017-06-21T04:56:18.430Z,14.67
2017-06-21T04:56:46.567Z,14.64
2017-06-21T04:57:14.366Z,14.64
2017-06-21T04:57:42.515Z,14.63
2017-06-21T04:58:10.628Z,14.64
2017-06-21T04:58:39.375Z,14.64
2017-06-21T04:59:07.589Z,14.66
2017-06-21T04:59:35.740Z,14.64
2017-06-21T05:00:03.868Z,14.63
2017-06-21T05:00:32.117Z,14.75
2017-06-21T05:01:00.252Z,14.69
2017-06-21T05:01:28.596Z,14.59
2017-06-21T05:01:56.742Z,14.67
2017-06-21T05:02:24.955Z,14.63
2017-06-21T05:02:53.235Z,14.64
2017-06-21T05:03:21.456Z,14.63
2017-06-21T05:03:49.687Z,14.66
2017-06-21T05:04:17.886Z,14.61
2017-06-21T05:04:45.884Z,14.67
2017-06-21T05:05:14.000Z,14.71
2017-06-21T05:05:42.143Z,14.63
2017-06-21T05:06:10.281Z,14.64
2017-06-21T05:06:38.415Z,14.61
2017-06-21T05:07:06.541Z,14.69
2017-06-21T05:07:34.763Z,14.63
2017-06-21T05:08:02.963Z,14.64
2017-06-21T05:08:31.778Z,14.64
2017-06-21T05:09:00.323Z,14.66
2017-06-21T05:09:30.285Z,14.67
2017-06-21T05:09:59.399Z,14.57
2017-06-21T05:10:27.612Z,14.63
2017-06-21T05:10:55.571Z,14.66
2017-06-21T05:11:23.813Z,14.66
2017-06-21T05:11:51.950Z,14.61
2017-06-21T05:12:20.165Z,14.63
2017-06-21T05:12:48.626Z,14.63
2017-06-21T05:13:17.559Z,14.61
2017-06-21T05:13:46.495Z,14.6
2017-06-21T05:14:15.159Z,14.61
2017-06-21T05:14:43.297Z,14.64
2017-06-21T05:15:11.401Z,14.63
2017-06-21T05:15:39.521Z,14.57
2017-06-21T05:16:07.697Z,14.63
2017-06-21T05:16:36.045Z,14.63
2017-06-21T05:17:04.182Z,14.69
2017-06-21T05:17:32.421Z,14.59
2017-06-21T05:18:00.531Z,14.6
2017-06-21T05:18:28.775Z,14.6
2017-06-21T05:18:56.874Z,14.6
2017-06-21T05:19:25.780Z,14.69
2017-06-21T05:19:53.764Z,14.71
2017-06-21T05:20:22.624Z,14.63
2017-06-21T05:20:50.774Z,14.59
2017-06-21T05:21:19.110Z,14.56
2017-06-21T05:21:47.163Z,14.63
2017-06-21T05:22:15.384Z,14.63
2017-06-21T05:22:43.531Z,14.66
2017-06-21T05:23:11.753Z,14.66
2017-06-21T05:23:40.380Z,14.64
2017-06-21T05:24:09.040Z,14.6
2017-06-21T05:24:37.469Z,14.63
2017-06-21T05:25:05.614Z,14.6
2017-06-21T05:25:33.838Z,14.67
2017-06-21T05:26:02.549Z,14.6
2017-06-21T05:26:31.919Z,14.59
2017-06-21T05:27:00.067Z,14.63
2017-06-21T05:27:29.309Z,14.66
2017-06-21T05:27:57.511Z,14.6
2017-06-21T05:28:25.521Z,14.56
2017-06-21T05:28:53.757Z,14.6
2017-06-21T05:29:21.895Z,14.61
2017-06-21T05:29:50.232Z,14.61
2017-06-21T05:30:18.351Z,14.6
2017-06-21T05:30:46.374Z,14.57
2017-06-21T05:31:14.917Z,14.51
2017-06-21T05:31:43.140Z,14.53
2017-06-21T05:32:11.346Z,14.59
2017-06-21T05:32:39.568Z,14.59
2017-06-21T05:33:07.714Z,14.6
2017-06-21T05:33:35.872Z,14.6
2017-06-21T05:34:04.109Z,14.59
2017-06-21T05:34:32.203Z,14.56
2017-06-21T05:35:00.450Z,14.56
2017-06-21T05:35:28.714Z,14.56
2017-06-21T05:35:56.871Z,14.61
2017-06-21T05:36:25.254Z,14.66
2017-06-21T05:36:53.257Z,14.6
2017-06-21T05:37:21.485Z,14.6
2017-06-21T05:37:49.703Z,14.61
2017-06-21T05:38:17.942Z,14.6
2017-06-21T05:38:46.075Z,14.56
2017-06-21T05:39:14.184Z,14.57
2017-06-21T05:39:42.729Z,14.61
2017-06-21T05:40:11.202Z,14.61
2017-06-21T05:40:39.399Z,14.67
2017-06-21T05:41:07.780Z,14.63
2017-06-21T05:41:36.353Z,14.6
2017-06-21T05:42:04.790Z,14.63
2017-06-21T05:42:32.999Z,14.67
2017-06-21T05:43:01.137Z,14.66
2017-06-21T05:43:29.349Z,14.63
2017-06-21T05:43:57.451Z,14.57
2017-06-21T05:44:25.452Z,14.6
2017-06-21T05:44:53.416Z,14.63
2017-06-21T05:45:21.865Z,14.63
2017-06-21T05:45:52.234Z,14.59
2017-06-21T05:46:21.107Z,14.6
2017-06-21T05:46:49.849Z,14.64
2017-06-21T05:47:17.951Z,14.57
2017-06-21T05:47:45.948Z,14.56
2017-06-21T05:48:14.165Z,14.61
2017-06-21T05:48:42.358Z,14.63
2017-06-21T05:49:11.206Z,14.63
2017-06-21T05:49:39.809Z,14.6
2017-06-21T05:50:08.430Z,14.63
2017-06-21T05:50:36.562Z,14.66
2017-06-21T05:51:04.718Z,14.66
2017-06-21T05:51:32.940Z,14.64
2017-06-21T05:52:01.036Z,14.63
2017-06-21T05:52:29.205Z,14.67
2017-06-21T05:52:57.429Z,14.63
2017-06-21T05:53:25.571Z,14.63
2017-06-21T05:53:53.717Z,14.6
2017-06-21T05:54:21.918Z,14.67
2017-06-21T05:54:50.154Z,14.77
2017-06-21T05:55:18.386Z,14.67
2017-06-21T05:55:46.406Z,14.63
2017-06-21T05:56:14.533Z,14.66
2017-06-21T05:56:42.696Z,14.63
2017-06-21T05:57:10.943Z,14.64
2017-06-21T05:57:39.651Z,14.64
2017-06-21T05:58:07.811Z,14.61
2017-06-21T05:58:36.066Z,14.63
2017-06-21T05:59:04.955Z,14.66
2017-06-21T05:59:33.188Z,14.66
2017-06-21T06:00:01.467Z,14.69
2017-06-21T06:00:29.648Z,14.69
2017-06-21T06:00:57.880Z,14.64
2017-06-21T06:01:25.941Z,14.7
2017-06-21T06:01:54.019Z,14.7
2017-06-21T06:02:22.226Z,14.67
2017-06-21T06:02:50.501Z,14.69
2017-06-21T06:03:18.679Z,14.63
2017-06-21T06:03:46.854Z,14.66
2017-06-21T06:04:15.067Z,14.59